sensor_id;sensor_type;location;lat;lon;timestamp;temperature;humidity
8539;DHT22;4307;53.868;11.680;2023-04-24T00:00:03;13.80;99.90
8539;DHT22;4307;53.868;11.680;2023-04-24T00:02:31;13.80;99.90
8539;DHT22;4307;53.868;11.680;2023-04-24T00:04:58;13.80;99.90
8539;DHT22;4307;53.868;11.680;2023-04-24T00:07:29;13.80;99.90
8539;DHT22;4307;53.868;11.680;2023-04-24T00:09:56;13.80;99.90
8539;DHT22;4307;53.868;11.680;2023-04-24T00:12:23;13.80;99.90
8539;DHT22;4307;53.868;11.680;2023-04-24T00:14:50;13.80;99.90
8539;DHT22;4307;53.868;11.680;2023-04-24T00:17:17;13.70;99.90
8539;DHT22;4307;53.868;11.680;2023-04-24T00:19:45;13.80;99.90
8539;DHT22;4307;53.868;11.680;2023-04-24T00:22:12;13.70;99.90
8539;DHT22;4307;53.868;11.680;2023-04-24T00:24:41;13.70;99.90
8539;DHT22;4307;53.868;11.680;2023-04-24T00:27:07;13.70;99.90
8539;DHT22;4307;53.868;11.680;2023-04-24T00:29:34;13.70;99.90
8539;DHT22;4307;53.868;11.680;2023-04-24T00:32:01;13.70;99.90
8539;DHT22;4307;53.868;11.680;2023-04-24T00:34:28;13.70;99.90
8539;DHT22;4307;53.868;11.680;2023-04-24T00:36:54;13.70;99.90
8539;DHT22;4307;53.868;11.680;2023-04-24T00:39:21;13.70;99.90
8539;DHT22;4307;53.868;11.680;2023-04-24T00:41:50;13.70;99.90
8539;DHT22;4307;53.868;11.680;2023-04-24T00:44:17;13.70;99.90
8539;DHT22;4307;53.868;11.680;2023-04-24T00:46:45;13.70;99.90
8539;DHT22;4307;53.868;11.680;2023-04-24T00:49:12;13.70;99.90
8539;DHT22;4307;53.868;11.680;2023-04-24T00:51:40;13.70;99.90
8539;DHT22;4307;53.868;11.680;2023-04-24T00:54:10;13.70;99.90
8539;DHT22;4307;53.868;11.680;2023-04-24T00:56:37;13.70;99.90
8539;DHT22;4307;53.868;11.680;2023-04-24T00:59:06;13.70;99.90
8539;DHT22;4307;53.868;11.680;2023-04-24T01:01:32;13.70;99.90
8539;DHT22;4307;53.868;11.680;2023-04-24T01:03:59;13.70;99.90
8539;DHT22;4307;53.868;11.680;2023-04-24T01:06:28;13.80;99.90
8539;DHT22;4307;53.868;11.680;2023-04-24T01:08:57;13.70;99.90
8539;DHT22;4307;53.868;11.680;2023-04-24T01:11:25;13.70;99.90
8539;DHT22;4307;53.868;11.680;2023-04-24T01:13:51;13.70;99.90
8539;DHT22;4307;53.868;11.680;2023-04-24T01:16:19;13.70;99.90
8539;DHT22;4307;53.868;11.680;2023-04-24T01:18:47;13.70;99.90
8539;DHT22;4307;53.868;11.680;2023-04-24T01:21:15;13.70;99.90
8539;DHT22;4307;53.868;11.680;2023-04-24T01:23:43;13.70;99.90
8539;DHT22;4307;53.868;11.680;2023-04-24T01:26:10;13.60;99.90
8539;DHT22;4307;53.868;11.680;2023-04-24T01:28:37;13.70;99.90
8539;DHT22;4307;53.868;11.680;2023-04-24T01:31:04;13.70;99.90
8539;DHT22;4307;53.868;11.680;2023-04-24T01:33:31;13.70;99.90
8539;DHT22;4307;53.868;11.680;2023-04-24T01:35:58;13.70;99.90
8539;DHT22;4307;53.868;11.680;2023-04-24T01:38:25;13.70;99.90
8539;DHT22;4307;53.868;11.680;2023-04-24T01:40:53;13.70;99.90
8539;DHT22;4307;53.868;11.680;2023-04-24T01:43:20;13.70;99.90
8539;DHT22;4307;53.868;11.680;2023-04-24T01:45:47;13.70;99.90
8539;DHT22;4307;53.868;11.680;2023-04-24T01:48:14;13.70;99.90
8539;DHT22;4307;53.868;11.680;2023-04-24T01:50:40;13.70;99.90
8539;DHT22;4307;53.868;11.680;2023-04-24T01:53:07;13.70;99.90
8539;DHT22;4307;53.868;11.680;2023-04-24T01:55:34;13.70;99.90
8539;DHT22;4307;53.868;11.680;2023-04-24T01:58:03;13.70;99.90
8539;DHT22;4307;53.868;11.680;2023-04-24T02:00:30;13.60;99.90
8539;DHT22;4307;53.868;11.680;2023-04-24T02:02:56;13.60;99.90
8539;DHT22;4307;53.868;11.680;2023-04-24T02:05:23;13.50;99.90
8539;DHT22;4307;53.868;11.680;2023-04-24T02:07:50;13.50;99.90
8539;DHT22;4307;53.868;11.680;2023-04-24T02:10:16;13.50;99.90
8539;DHT22;4307;53.868;11.680;2023-04-24T02:12:43;13.50;99.90
8539;DHT22;4307;53.868;11.680;2023-04-24T02:15:12;13.50;99.90
8539;DHT22;4307;53.868;11.680;2023-04-24T02:17:38;13.50;99.90
8539;DHT22;4307;53.868;11.680;2023-04-24T02:20:07;13.50;99.90
8539;DHT22;4307;53.868;11.680;2023-04-24T02:22:33;13.50;99.90
8539;DHT22;4307;53.868;11.680;2023-04-24T02:25:00;13.50;99.90
8539;DHT22;4307;53.868;11.680;2023-04-24T02:27:27;13.50;99.90
8539;DHT22;4307;53.868;11.680;2023-04-24T02:29:53;13.50;99.90
8539;DHT22;4307;53.868;11.680;2023-04-24T02:32:22;13.50;99.90
8539;DHT22;4307;53.868;11.680;2023-04-24T02:34:48;13.50;99.90
8539;DHT22;4307;53.868;11.680;2023-04-24T02:37:15;13.50;99.90
8539;DHT22;4307;53.868;11.680;2023-04-24T02:39:42;13.50;99.90
8539;DHT22;4307;53.868;11.680;2023-04-24T02:42:08;13.50;99.90
8539;DHT22;4307;53.868;11.680;2023-04-24T02:44:35;13.50;99.90
8539;DHT22;4307;53.868;11.680;2023-04-24T02:47:02;13.50;99.90
8539;DHT22;4307;53.868;11.680;2023-04-24T02:49:30;13.50;99.90
8539;DHT22;4307;53.868;11.680;2023-04-24T02:51:57;13.50;99.90
8539;DHT22;4307;53.868;11.680;2023-04-24T02:54:23;13.50;99.90
8539;DHT22;4307;53.868;11.680;2023-04-24T02:56:50;13.40;99.90
8539;DHT22;4307;53.868;11.680;2023-04-24T02:59:16;13.40;99.90
8539;DHT22;4307;53.868;11.680;2023-04-24T03:01:43;13.40;99.90
8539;DHT22;4307;53.868;11.680;2023-04-24T03:04:10;13.40;99.90
8539;DHT22;4307;53.868;11.680;2023-04-24T03:06:38;13.30;99.90
8539;DHT22;4307;53.868;11.680;2023-04-24T03:09:05;13.30;99.90
8539;DHT22;4307;53.868;11.680;2023-04-24T03:11:31;13.30;99.90
8539;DHT22;4307;53.868;11.680;2023-04-24T03:13:58;13.30;99.90
8539;DHT22;4307;53.868;11.680;2023-04-24T03:16:24;13.20;99.90
8539;DHT22;4307;53.868;11.680;2023-04-24T03:18:51;13.20;99.90
8539;DHT22;4307;53.868;11.680;2023-04-24T03:21:18;13.20;99.90
8539;DHT22;4307;53.868;11.680;2023-04-24T03:23:46;13.10;99.90
8539;DHT22;4307;53.868;11.680;2023-04-24T03:26:12;13.10;99.90
8539;DHT22;4307;53.868;11.680;2023-04-24T03:28:39;13.10;99.90
8539;DHT22;4307;53.868;11.680;2023-04-24T03:31:06;13.10;99.90
8539;DHT22;4307;53.868;11.680;2023-04-24T03:33:32;13.10;99.90
8539;DHT22;4307;53.868;11.680;2023-04-24T03:35:59;13.00;99.90
8539;DHT22;4307;53.868;11.680;2023-04-24T03:38:26;13.00;99.90
8539;DHT22;4307;53.868;11.680;2023-04-24T03:40:54;13.00;99.90
8539;DHT22;4307;53.868;11.680;2023-04-24T03:43:20;12.90;99.90
8539;DHT22;4307;53.868;11.680;2023-04-24T03:45:47;12.90;99.90
8539;DHT22;4307;53.868;11.680;2023-04-24T03:48:14;12.90;99.90
8539;DHT22;4307;53.868;11.680;2023-04-24T03:50:40;12.80;99.90
8539;DHT22;4307;53.868;11.680;2023-04-24T03:53:07;12.80;99.90
8539;DHT22;4307;53.868;11.680;2023-04-24T03:55:34;12.70;99.90
8539;DHT22;4307;53.868;11.680;2023-04-24T03:58:02;12.70;99.90
8539;DHT22;4307;53.868;11.680;2023-04-24T04:00:28;12.70;99.90
8539;DHT22;4307;53.868;11.680;2023-04-24T04:02:58;12.60;99.90
8539;DHT22;4307;53.868;11.680;2023-04-24T04:05:25;12.60;99.90
8539;DHT22;4307;53.868;11.680;2023-04-24T04:07:51;12.60;99.90
8539;DHT22;4307;53.868;11.680;2023-04-24T04:10:18;12.50;99.90
8539;DHT22;4307;53.868;11.680;2023-04-24T04:12:45;12.50;99.90
8539;DHT22;4307;53.868;11.680;2023-04-24T04:15:13;12.50;99.90
8539;DHT22;4307;53.868;11.680;2023-04-24T04:17:39;12.50;99.90
8539;DHT22;4307;53.868;11.680;2023-04-24T04:20:07;12.40;99.90
8539;DHT22;4307;53.868;11.680;2023-04-24T04:22:35;12.40;99.90
8539;DHT22;4307;53.868;11.680;2023-04-24T04:25:02;12.40;99.90
8539;DHT22;4307;53.868;11.680;2023-04-24T04:27:29;12.40;99.90
8539;DHT22;4307;53.868;11.680;2023-04-24T04:29:58;12.40;99.90
8539;DHT22;4307;53.868;11.680;2023-04-24T04:32:28;12.30;99.90
8539;DHT22;4307;53.868;11.680;2023-04-24T04:34:54;12.30;99.90
8539;DHT22;4307;53.868;11.680;2023-04-24T04:37:21;12.30;99.90
8539;DHT22;4307;53.868;11.680;2023-04-24T04:39:47;12.30;99.90
8539;DHT22;4307;53.868;11.680;2023-04-24T04:42:14;12.30;99.90
8539;DHT22;4307;53.868;11.680;2023-04-24T04:44:41;12.30;99.90
8539;DHT22;4307;53.868;11.680;2023-04-24T04:47:08;12.30;99.90
8539;DHT22;4307;53.868;11.680;2023-04-24T04:49:37;12.30;99.90
8539;DHT22;4307;53.868;11.680;2023-04-24T04:52:04;12.30;99.90
8539;DHT22;4307;53.868;11.680;2023-04-24T04:54:32;12.30;99.90
8539;DHT22;4307;53.868;11.680;2023-04-24T04:56:59;12.30;99.90
8539;DHT22;4307;53.868;11.680;2023-04-24T04:59:26;12.30;99.90
8539;DHT22;4307;53.868;11.680;2023-04-24T05:01:53;12.30;99.90
8539;DHT22;4307;53.868;11.680;2023-04-24T05:04:19;12.30;99.90
8539;DHT22;4307;53.868;11.680;2023-04-24T05:06:47;12.50;99.90
8539;DHT22;4307;53.868;11.680;2023-04-24T05:09:16;12.60;99.90
8539;DHT22;4307;53.868;11.680;2023-04-24T05:11:43;12.80;99.90
8539;DHT22;4307;53.868;11.680;2023-04-24T05:14:09;12.90;99.90
8539;DHT22;4307;53.868;11.680;2023-04-24T05:16:37;13.10;99.90
8539;DHT22;4307;53.868;11.680;2023-04-24T05:19:04;13.20;99.90
8539;DHT22;4307;53.868;11.680;2023-04-24T05:21:32;13.30;99.90
8539;DHT22;4307;53.868;11.680;2023-04-24T05:24:00;13.60;99.90
8539;DHT22;4307;53.868;11.680;2023-04-24T05:26:26;14.00;99.90
8539;DHT22;4307;53.868;11.680;2023-04-24T05:28:53;14.30;99.90
8539;DHT22;4307;53.868;11.680;2023-04-24T05:31:20;14.70;99.90
8539;DHT22;4307;53.868;11.680;2023-04-24T05:33:46;15.00;99.90
8539;DHT22;4307;53.868;11.680;2023-04-24T05:36:13;14.90;99.90
8539;DHT22;4307;53.868;11.680;2023-04-24T05:38:40;14.60;99.90
8539;DHT22;4307;53.868;11.680;2023-04-24T05:41:08;14.40;99.90
8539;DHT22;4307;53.868;11.680;2023-04-24T05:43:35;14.20;99.90
8539;DHT22;4307;53.868;11.680;2023-04-24T05:46:01;14.30;99.90
8539;DHT22;4307;53.868;11.680;2023-04-24T05:48:28;14.30;99.90
8539;DHT22;4307;53.868;11.680;2023-04-24T05:50:55;14.50;99.90
8539;DHT22;4307;53.868;11.680;2023-04-24T05:53:22;14.90;99.90
8539;DHT22;4307;53.868;11.680;2023-04-24T05:55:48;15.30;99.90
8539;DHT22;4307;53.868;11.680;2023-04-24T05:58:16;15.60;99.90
8539;DHT22;4307;53.868;11.680;2023-04-24T06:00:43;15.80;99.90
8539;DHT22;4307;53.868;11.680;2023-04-24T06:03:11;15.90;99.90
8539;DHT22;4307;53.868;11.680;2023-04-24T06:05:38;15.90;99.90
8539;DHT22;4307;53.868;11.680;2023-04-24T06:08:05;15.80;99.90
8539;DHT22;4307;53.868;11.680;2023-04-24T06:10:32;15.80;99.90
8539;DHT22;4307;53.868;11.680;2023-04-24T06:12:58;15.80;99.90
8539;DHT22;4307;53.868;11.680;2023-04-24T06:15:29;15.70;99.90
8539;DHT22;4307;53.868;11.680;2023-04-24T06:17:56;15.50;99.90
8539;DHT22;4307;53.868;11.680;2023-04-24T06:20:23;15.50;99.90
8539;DHT22;4307;53.868;11.680;2023-04-24T06:22:50;15.30;99.90
8539;DHT22;4307;53.868;11.680;2023-04-24T06:25:17;15.20;99.90
8539;DHT22;4307;53.868;11.680;2023-04-24T06:27:44;15.00;99.90
8539;DHT22;4307;53.868;11.680;2023-04-24T06:30:11;15.00;99.90
8539;DHT22;4307;53.868;11.680;2023-04-24T06:32:39;15.00;99.90
8539;DHT22;4307;53.868;11.680;2023-04-24T06:35:07;14.90;99.90
8539;DHT22;4307;53.868;11.680;2023-04-24T06:37:35;14.80;99.90
8539;DHT22;4307;53.868;11.680;2023-04-24T06:40:02;14.70;99.90
8539;DHT22;4307;53.868;11.680;2023-04-24T06:42:28;14.60;99.90
8539;DHT22;4307;53.868;11.680;2023-04-24T06:44:55;14.50;99.90
8539;DHT22;4307;53.868;11.680;2023-04-24T06:47:22;14.30;99.90
8539;DHT22;4307;53.868;11.680;2023-04-24T06:49:50;14.10;99.90
8539;DHT22;4307;53.868;11.680;2023-04-24T06:52:18;14.10;99.90
8539;DHT22;4307;53.868;11.680;2023-04-24T06:54:45;14.00;99.90
8539;DHT22;4307;53.868;11.680;2023-04-24T06:57:11;14.00;99.90
8539;DHT22;4307;53.868;11.680;2023-04-24T06:59:38;13.90;99.90
8539;DHT22;4307;53.868;11.680;2023-04-24T07:02:05;13.90;99.90
8539;DHT22;4307;53.868;11.680;2023-04-24T07:04:31;13.90;99.90
8539;DHT22;4307;53.868;11.680;2023-04-24T07:06:59;13.90;99.90
8539;DHT22;4307;53.868;11.680;2023-04-24T07:09:26;13.90;99.90
8539;DHT22;4307;53.868;11.680;2023-04-24T07:11:53;13.90;99.90
8539;DHT22;4307;53.868;11.680;2023-04-24T07:14:23;14.00;99.90
8539;DHT22;4307;53.868;11.680;2023-04-24T07:16:49;14.00;99.90
8539;DHT22;4307;53.868;11.680;2023-04-24T07:19:16;14.00;99.90
8539;DHT22;4307;53.868;11.680;2023-04-24T07:21:43;14.10;99.90
8539;DHT22;4307;53.868;11.680;2023-04-24T07:24:11;14.10;99.90
8539;DHT22;4307;53.868;11.680;2023-04-24T07:26:38;14.10;99.90
8539;DHT22;4307;53.868;11.680;2023-04-24T07:29:05;14.10;99.90
8539;DHT22;4307;53.868;11.680;2023-04-24T07:31:32;14.20;99.90
8539;DHT22;4307;53.868;11.680;2023-04-24T07:33:59;14.30;99.90
8539;DHT22;4307;53.868;11.680;2023-04-24T07:36:26;14.30;99.90
8539;DHT22;4307;53.868;11.680;2023-04-24T07:38:54;14.30;99.90
8539;DHT22;4307;53.868;11.680;2023-04-24T07:41:22;14.40;99.90
8539;DHT22;4307;53.868;11.680;2023-04-24T07:43:49;14.40;99.90
8539;DHT22;4307;53.868;11.680;2023-04-24T07:46:16;14.40;99.90
8539;DHT22;4307;53.868;11.680;2023-04-24T07:48:42;14.40;99.90
8539;DHT22;4307;53.868;11.680;2023-04-24T07:51:09;14.50;99.90
8539;DHT22;4307;53.868;11.680;2023-04-24T07:53:38;14.70;99.90
8539;DHT22;4307;53.868;11.680;2023-04-24T07:56:05;15.00;99.90
8539;DHT22;4307;53.868;11.680;2023-04-24T07:58:33;15.20;99.90
8539;DHT22;4307;53.868;11.680;2023-04-24T08:01:00;15.40;99.90
8539;DHT22;4307;53.868;11.680;2023-04-24T08:03:27;15.60;99.90
8539;DHT22;4307;53.868;11.680;2023-04-24T08:05:53;15.60;99.90
8539;DHT22;4307;53.868;11.680;2023-04-24T08:08:21;15.60;99.90
8539;DHT22;4307;53.868;11.680;2023-04-24T08:10:49;15.80;99.90
8539;DHT22;4307;53.868;11.680;2023-04-24T08:13:15;15.90;99.80
8539;DHT22;4307;53.868;11.680;2023-04-24T08:15:44;15.90;99.80
8539;DHT22;4307;53.868;11.680;2023-04-24T08:18:10;16.10;99.70
8539;DHT22;4307;53.868;11.680;2023-04-24T08:20:38;16.20;99.30
8539;DHT22;4307;53.868;11.680;2023-04-24T08:23:05;16.20;98.50
8539;DHT22;4307;53.868;11.680;2023-04-24T08:25:32;16.10;98.10
8539;DHT22;4307;53.868;11.680;2023-04-24T08:28:01;16.00;97.90
8539;DHT22;4307;53.868;11.680;2023-04-24T08:30:28;16.00;97.50
8539;DHT22;4307;53.868;11.680;2023-04-24T08:32:56;15.90;97.60
8539;DHT22;4307;53.868;11.680;2023-04-24T08:35:23;15.90;97.50
8539;DHT22;4307;53.868;11.680;2023-04-24T08:37:51;15.80;97.30
8539;DHT22;4307;53.868;11.680;2023-04-24T08:40:22;15.70;97.40
8539;DHT22;4307;53.868;11.680;2023-04-24T08:42:54;15.80;97.90
8539;DHT22;4307;53.868;11.680;2023-04-24T08:45:21;16.00;97.90
8539;DHT22;4307;53.868;11.680;2023-04-24T08:47:48;16.20;97.60
8539;DHT22;4307;53.868;11.680;2023-04-24T08:50:17;16.30;97.50
8539;DHT22;4307;53.868;11.680;2023-04-24T08:52:43;16.50;97.80
8539;DHT22;4307;53.868;11.680;2023-04-24T08:55:10;16.80;97.50
8539;DHT22;4307;53.868;11.680;2023-04-24T08:57:37;16.90;97.20
8539;DHT22;4307;53.868;11.680;2023-04-24T09:00:06;17.00;97.20
8539;DHT22;4307;53.868;11.680;2023-04-24T09:02:34;17.10;96.90
8539;DHT22;4307;53.868;11.680;2023-04-24T09:05:01;17.00;96.40
8539;DHT22;4307;53.868;11.680;2023-04-24T09:07:32;16.80;95.80
8539;DHT22;4307;53.868;11.680;2023-04-24T09:10:01;16.60;96.00
8539;DHT22;4307;53.868;11.680;2023-04-24T09:12:28;16.50;96.20
8539;DHT22;4307;53.868;11.680;2023-04-24T09:14:55;16.40;96.30
8539;DHT22;4307;53.868;11.680;2023-04-24T09:17:23;16.40;96.40
8539;DHT22;4307;53.868;11.680;2023-04-24T09:19:52;16.50;96.20
8539;DHT22;4307;53.868;11.680;2023-04-24T09:22:19;16.30;96.00
8539;DHT22;4307;53.868;11.680;2023-04-24T09:24:47;16.20;96.10
8539;DHT22;4307;53.868;11.680;2023-04-24T09:27:14;16.20;96.30
8539;DHT22;4307;53.868;11.680;2023-04-24T09:29:53;16.30;96.50
8539;DHT22;4307;53.868;11.680;2023-04-24T09:32:21;16.40;96.40
8539;DHT22;4307;53.868;11.680;2023-04-24T09:35:04;16.40;96.20
8539;DHT22;4307;53.868;11.680;2023-04-24T09:37:35;16.30;96.20
8539;DHT22;4307;53.868;11.680;2023-04-24T09:40:14;16.30;96.40
8539;DHT22;4307;53.868;11.680;2023-04-24T09:42:44;16.30;96.40
8539;DHT22;4307;53.868;11.680;2023-04-24T09:45:12;16.20;96.50
8539;DHT22;4307;53.868;11.680;2023-04-24T09:47:39;16.20;96.60
8539;DHT22;4307;53.868;11.680;2023-04-24T09:50:10;16.10;96.70
8539;DHT22;4307;53.868;11.680;2023-04-24T09:52:40;16.10;96.80
8539;DHT22;4307;53.868;11.680;2023-04-24T09:55:13;16.10;97.10
8539;DHT22;4307;53.868;11.680;2023-04-24T09:57:47;16.20;97.30
8539;DHT22;4307;53.868;11.680;2023-04-24T10:00:18;16.40;97.40
8539;DHT22;4307;53.868;11.680;2023-04-24T10:02:49;16.70;97.50
8539;DHT22;4307;53.868;11.680;2023-04-24T10:05:17;16.80;97.20
8539;DHT22;4307;53.868;11.680;2023-04-24T10:07:43;16.80;97.00
8539;DHT22;4307;53.868;11.680;2023-04-24T10:10:12;16.60;97.00
8539;DHT22;4307;53.868;11.680;2023-04-24T10:12:39;16.50;97.30
8539;DHT22;4307;53.868;11.680;2023-04-24T10:15:08;16.50;97.40
8539;DHT22;4307;53.868;11.680;2023-04-24T10:17:37;16.50;97.50
8539;DHT22;4307;53.868;11.680;2023-04-24T10:20:06;16.40;97.40
8539;DHT22;4307;53.868;11.680;2023-04-24T10:22:33;16.20;97.40
8539;DHT22;4307;53.868;11.680;2023-04-24T10:25:03;16.10;97.60
8539;DHT22;4307;53.868;11.680;2023-04-24T10:27:32;16.00;97.70
8539;DHT22;4307;53.868;11.680;2023-04-24T10:30:00;15.80;97.80
8539;DHT22;4307;53.868;11.680;2023-04-24T10:32:26;15.60;97.90
8539;DHT22;4307;53.868;11.680;2023-04-24T10:34:54;15.60;98.00
8539;DHT22;4307;53.868;11.680;2023-04-24T10:37:22;15.50;98.10
8539;DHT22;4307;53.868;11.680;2023-04-24T10:39:49;15.50;98.20
8539;DHT22;4307;53.868;11.680;2023-04-24T10:42:17;15.50;98.40
8539;DHT22;4307;53.868;11.680;2023-04-24T10:44:47;15.70;98.70
8539;DHT22;4307;53.868;11.680;2023-04-24T10:47:14;15.90;98.70
8539;DHT22;4307;53.868;11.680;2023-04-24T10:49:41;16.00;98.60
8539;DHT22;4307;53.868;11.680;2023-04-24T10:52:08;16.10;98.50
8539;DHT22;4307;53.868;11.680;2023-04-24T10:54:41;16.30;98.50
8539;DHT22;4307;53.868;11.680;2023-04-24T10:57:26;16.40;98.50
8539;DHT22;4307;53.868;11.680;2023-04-24T11:02:53;16.50;97.90
8539;DHT22;4307;53.868;11.680;2023-04-24T11:05:21;16.50;97.50
8539;DHT22;4307;53.868;11.680;2023-04-24T11:08:10;16.40;97.40
8539;DHT22;4307;53.868;11.680;2023-04-24T11:10:39;16.20;97.20
8539;DHT22;4307;53.868;11.680;2023-04-24T11:13:06;16.10;97.10
8539;DHT22;4307;53.868;11.680;2023-04-24T11:15:33;16.00;97.30
8539;DHT22;4307;53.868;11.680;2023-04-24T11:18:02;15.90;97.30
8539;DHT22;4307;53.868;11.680;2023-04-24T11:20:28;15.80;97.30
8539;DHT22;4307;53.868;11.680;2023-04-24T11:22:57;15.60;97.10
8539;DHT22;4307;53.868;11.680;2023-04-24T11:25:30;15.50;97.20
8539;DHT22;4307;53.868;11.680;2023-04-24T11:28:03;15.40;97.20
8539;DHT22;4307;53.868;11.680;2023-04-24T11:30:32;15.30;97.20
8539;DHT22;4307;53.868;11.680;2023-04-24T11:33:04;15.30;97.30
8539;DHT22;4307;53.868;11.680;2023-04-24T11:35:35;15.20;97.30
8539;DHT22;4307;53.868;11.680;2023-04-24T11:38:03;15.20;97.50
8539;DHT22;4307;53.868;11.680;2023-04-24T11:40:30;15.10;97.60
8539;DHT22;4307;53.868;11.680;2023-04-24T11:43:00;15.10;97.70
8539;DHT22;4307;53.868;11.680;2023-04-24T11:45:28;15.10;97.80
8539;DHT22;4307;53.868;11.680;2023-04-24T11:47:55;15.00;97.80
8539;DHT22;4307;53.868;11.680;2023-04-24T11:50:24;15.00;98.00
8539;DHT22;4307;53.868;11.680;2023-04-24T11:52:53;15.00;98.20
8539;DHT22;4307;53.868;11.680;2023-04-24T11:55:24;15.00;98.10
8539;DHT22;4307;53.868;11.680;2023-04-24T11:57:53;15.00;98.10
8539;DHT22;4307;53.868;11.680;2023-04-24T12:00:23;15.00;98.10
8539;DHT22;4307;53.868;11.680;2023-04-24T12:02:50;14.90;98.10
8539;DHT22;4307;53.868;11.680;2023-04-24T12:05:20;14.90;98.20
8539;DHT22;4307;53.868;11.680;2023-04-24T12:07:48;14.80;98.30
8539;DHT22;4307;53.868;11.680;2023-04-24T12:10:20;14.70;98.40
8539;DHT22;4307;53.868;11.680;2023-04-24T12:12:52;14.70;98.70
8539;DHT22;4307;53.868;11.680;2023-04-24T12:15:21;14.60;98.70
8539;DHT22;4307;53.868;11.680;2023-04-24T12:17:51;14.50;98.60
8539;DHT22;4307;53.868;11.680;2023-04-24T12:20:24;14.40;98.60
8539;DHT22;4307;53.868;11.680;2023-04-24T12:22:53;14.30;98.70
8539;DHT22;4307;53.868;11.680;2023-04-24T12:25:22;14.20;98.70
8539;DHT22;4307;53.868;11.680;2023-04-24T12:27:53;14.10;98.70
8539;DHT22;4307;53.868;11.680;2023-04-24T12:30:20;14.00;98.70
8539;DHT22;4307;53.868;11.680;2023-04-24T12:32:49;13.60;99.20
8539;DHT22;4307;53.868;11.680;2023-04-24T12:35:19;13.40;99.80
8539;DHT22;4307;53.868;11.680;2023-04-24T12:37:47;13.30;99.90
8539;DHT22;4307;53.868;11.680;2023-04-24T12:40:15;13.50;99.90
8539;DHT22;4307;53.868;11.680;2023-04-24T12:42:43;14.10;99.90
8539;DHT22;4307;53.868;11.680;2023-04-24T12:45:10;14.70;99.90
8539;DHT22;4307;53.868;11.680;2023-04-24T12:47:39;15.20;99.90
8539;DHT22;4307;53.868;11.680;2023-04-24T12:50:07;15.60;99.90
8539;DHT22;4307;53.868;11.680;2023-04-24T12:52:34;16.10;99.90
8539;DHT22;4307;53.868;11.680;2023-04-24T12:55:01;16.70;99.80
8539;DHT22;4307;53.868;11.680;2023-04-24T12:57:30;17.30;99.30
8539;DHT22;4307;53.868;11.680;2023-04-24T12:59:58;17.90;98.50
8539;DHT22;4307;53.868;11.680;2023-04-24T13:02:27;18.40;97.50
8539;DHT22;4307;53.868;11.680;2023-04-24T13:04:55;18.30;96.60
8539;DHT22;4307;53.868;11.680;2023-04-24T13:07:22;18.00;96.50
8539;DHT22;4307;53.868;11.680;2023-04-24T13:09:50;17.90;96.70
8539;DHT22;4307;53.868;11.680;2023-04-24T13:12:17;17.90;96.10
8539;DHT22;4307;53.868;11.680;2023-04-24T13:14:45;17.70;95.70
8539;DHT22;4307;53.868;11.680;2023-04-24T13:17:12;17.50;95.50
8539;DHT22;4307;53.868;11.680;2023-04-24T13:19:41;17.50;95.50
8539;DHT22;4307;53.868;11.680;2023-04-24T13:22:09;17.70;95.40
8539;DHT22;4307;53.868;11.680;2023-04-24T13:24:37;18.20;95.50
8539;DHT22;4307;53.868;11.680;2023-04-24T13:27:05;18.80;94.50
8539;DHT22;4307;53.868;11.680;2023-04-24T13:29:32;19.00;93.30
8539;DHT22;4307;53.868;11.680;2023-04-24T13:32:00;18.90;93.10
8539;DHT22;4307;53.868;11.680;2023-04-24T13:34:27;19.40;92.50
8539;DHT22;4307;53.868;11.680;2023-04-24T13:36:54;19.50;91.00
8539;DHT22;4307;53.868;11.680;2023-04-24T13:39:22;19.30;90.00
8539;DHT22;4307;53.868;11.680;2023-04-24T13:41:48;19.20;88.80
8539;DHT22;4307;53.868;11.680;2023-04-24T13:44:16;19.10;87.70
8539;DHT22;4307;53.868;11.680;2023-04-24T13:46:44;18.80;87.20
8539;DHT22;4307;53.868;11.680;2023-04-24T13:49:13;18.80;87.00
8539;DHT22;4307;53.868;11.680;2023-04-24T13:51:41;18.70;86.50
8539;DHT22;4307;53.868;11.680;2023-04-24T13:54:08;18.60;85.60
8539;DHT22;4307;53.868;11.680;2023-04-24T13:56:35;18.40;85.40
8539;DHT22;4307;53.868;11.680;2023-04-24T13:59:01;18.10;85.10
8539;DHT22;4307;53.868;11.680;2023-04-24T14:01:28;18.00;85.70
8539;DHT22;4307;53.868;11.680;2023-04-24T14:03:55;18.00;86.00
8539;DHT22;4307;53.868;11.680;2023-04-24T14:06:23;17.80;86.20
8539;DHT22;4307;53.868;11.680;2023-04-24T14:08:51;17.80;86.90
8539;DHT22;4307;53.868;11.680;2023-04-24T14:11:18;17.90;87.10
8539;DHT22;4307;53.868;11.680;2023-04-24T14:13:45;18.00;86.20
8539;DHT22;4307;53.868;11.680;2023-04-24T14:16:12;18.00;85.70
8539;DHT22;4307;53.868;11.680;2023-04-24T14:18:39;17.80;84.90
8539;DHT22;4307;53.868;11.680;2023-04-24T14:21:06;17.50;85.30
8539;DHT22;4307;53.868;11.680;2023-04-24T14:23:34;17.20;85.70
8539;DHT22;4307;53.868;11.680;2023-04-24T14:26:01;17.00;86.70
8539;DHT22;4307;53.868;11.680;2023-04-24T14:28:27;16.90;87.20
8539;DHT22;4307;53.868;11.680;2023-04-24T14:30:54;16.80;87.90
8539;DHT22;4307;53.868;11.680;2023-04-24T14:33:21;16.80;88.40
8539;DHT22;4307;53.868;11.680;2023-04-24T14:35:47;16.70;88.50
8539;DHT22;4307;53.868;11.680;2023-04-24T14:38:14;16.60;88.80
8539;DHT22;4307;53.868;11.680;2023-04-24T14:40:42;16.50;89.10
8539;DHT22;4307;53.868;11.680;2023-04-24T14:43:09;16.40;89.50
8539;DHT22;4307;53.868;11.680;2023-04-24T14:45:36;16.30;88.70
8539;DHT22;4307;53.868;11.680;2023-04-24T14:48:03;16.20;87.50
8539;DHT22;4307;53.868;11.680;2023-04-24T14:50:30;16.00;87.20
8539;DHT22;4307;53.868;11.680;2023-04-24T14:52:57;15.80;87.50
8539;DHT22;4307;53.868;11.680;2023-04-24T14:55:23;15.80;87.70
8539;DHT22;4307;53.868;11.680;2023-04-24T14:57:52;15.70;88.40
8539;DHT22;4307;53.868;11.680;2023-04-24T15:00:20;15.80;88.60
8539;DHT22;4307;53.868;11.680;2023-04-24T15:02:48;15.70;88.40
8539;DHT22;4307;53.868;11.680;2023-04-24T15:05:15;15.70;88.90
8539;DHT22;4307;53.868;11.680;2023-04-24T15:07:41;15.80;88.90
8539;DHT22;4307;53.868;11.680;2023-04-24T15:10:09;15.90;88.50
8539;DHT22;4307;53.868;11.680;2023-04-24T15:12:36;15.90;88.70
8539;DHT22;4307;53.868;11.680;2023-04-24T15:15:05;15.90;88.90
8539;DHT22;4307;53.868;11.680;2023-04-24T15:17:32;15.90;88.90
8539;DHT22;4307;53.868;11.680;2023-04-24T15:19:59;15.80;88.80
8539;DHT22;4307;53.868;11.680;2023-04-24T15:22:26;15.60;89.20
8539;DHT22;4307;53.868;11.680;2023-04-24T15:24:52;15.40;89.60
8539;DHT22;4307;53.868;11.680;2023-04-24T15:27:19;15.30;90.10
8539;DHT22;4307;53.868;11.680;2023-04-24T15:29:46;15.30;90.40
8539;DHT22;4307;53.868;11.680;2023-04-24T15:32:14;15.30;90.60
8539;DHT22;4307;53.868;11.680;2023-04-24T15:34:40;15.30;90.70
8539;DHT22;4307;53.868;11.680;2023-04-24T15:37:07;15.30;90.80
8539;DHT22;4307;53.868;11.680;2023-04-24T15:39:35;15.30;90.80
8539;DHT22;4307;53.868;11.680;2023-04-24T15:42:03;15.30;91.00
8539;DHT22;4307;53.868;11.680;2023-04-24T15:44:30;15.30;91.20
8539;DHT22;4307;53.868;11.680;2023-04-24T15:46:56;15.20;91.30
8539;DHT22;4307;53.868;11.680;2023-04-24T15:49:27;15.20;91.30